createdAt,value
2018-11-28T00:00:58.614Z,0.76
2018-11-28T00:03:29.016Z,0.89
2018-11-28T00:05:59.337Z,0.64
2018-11-28T00:08:29.926Z,0.61
2018-11-28T00:11:00.557Z,0.55
2018-11-28T00:13:30.880Z,0.53
2018-11-28T00:16:01.210Z,0.68
2018-11-28T00:18:31.591Z,0.94
2018-11-28T00:21:02.082Z,0.96
2018-11-28T00:23:32.565Z,0.90
2018-11-28T00:26:03.026Z,1.01
2018-11-28T00:28:33.452Z,1.09
2018-11-28T00:31:03.964Z,1.10
2018-11-28T00:33:34.583Z,1.06
2018-11-28T00:36:05.101Z,1.14
2018-11-28T00:38:36.298Z,1.07
2018-11-28T00:41:06.855Z,1.05
2018-11-28T00:43:37.323Z,1.05
2018-11-28T00:46:08.194Z,1.10
2018-11-28T00:48:38.692Z,1.12
2018-11-28T00:51:09.136Z,1.00
2018-11-28T00:53:39.696Z,1.04
2018-11-28T00:56:10.008Z,1.03
2018-11-28T00:58:40.342Z,1.09
2018-11-28T01:01:10.846Z,1.17
2018-11-28T01:03:41.219Z,1.18
2018-11-28T01:06:11.601Z,1.16
2018-11-28T01:08:42.006Z,1.15
2018-11-28T01:11:12.510Z,1.27
2018-11-28T01:13:42.914Z,1.29
2018-11-28T01:16:13.403Z,1.20
2018-11-28T01:18:46.618Z,1.20
2018-11-28T01:21:14.862Z,1.24
2018-11-28T01:23:45.262Z,1.22
2018-11-28T01:26:15.632Z,1.23
2018-11-28T01:28:46.602Z,1.26
2018-11-28T01:31:17.054Z,1.38
2018-11-28T01:33:47.351Z,1.36
2018-11-28T01:36:17.769Z,1.33
2018-11-28T01:38:48.200Z,1.35
2018-11-28T01:41:18.609Z,1.37
2018-11-28T01:43:49.021Z,1.43
2018-11-28T01:46:19.402Z,1.46
2018-11-28T01:48:49.878Z,1.45
2018-11-28T01:51:21.190Z,1.48
2018-11-28T01:53:51.571Z,1.52
2018-11-28T01:56:22.041Z,1.52
2018-11-28T01:58:52.450Z,1.52
2018-11-28T02:01:22.875Z,1.44
2018-11-28T02:03:53.193Z,1.38
2018-11-28T02:06:23.622Z,1.33
2018-11-28T02:08:54.073Z,1.26
2018-11-28T02:11:24.650Z,1.21
2018-11-28T02:13:54.980Z,1.20
2018-11-28T02:16:25.301Z,1.04
2018-11-28T02:18:55.707Z,1.07
2018-11-28T02:21:26.200Z,1.06
2018-11-28T02:23:56.610Z,0.91
2018-11-28T02:26:27.101Z,0.73
2018-11-28T02:28:57.488Z,0.56
2018-11-28T02:31:27.794Z,0.52
2018-11-28T02:33:58.427Z,0.46
2018-11-28T02:36:28.741Z,0.53
2018-11-28T02:38:59.158Z,0.58
2018-11-28T02:41:29.634Z,0.60
2018-11-28T02:44:00.128Z,0.49
2018-11-28T02:46:31.901Z,0.47
2018-11-28T02:49:02.383Z,0.52
2018-11-28T02:51:32.914Z,0.52
2018-11-28T02:54:03.172Z,0.36
2018-11-28T02:56:33.478Z,0.34
2018-11-28T02:59:04.148Z,0.27
2018-11-28T03:01:34.430Z,0.13
2018-11-28T03:04:04.877Z,0.23
2018-11-28T03:06:35.186Z,0.18
2018-11-28T03:09:07.964Z,0.04
2018-11-28T03:11:39.247Z,0.01
2018-11-28T03:14:09.764Z,0.10
2018-11-28T03:16:40.129Z,0.09
2018-11-28T03:19:10.439Z,-0.03
2018-11-28T03:21:41.805Z,-0.02
2018-11-28T03:24:12.268Z,0.02
2018-11-28T03:26:42.585Z,-0.04
2018-11-28T03:29:12.963Z,-0.04
2018-11-28T03:31:43.284Z,0.05
2018-11-28T03:34:13.609Z,-0.01
2018-11-28T03:36:43.996Z,-0.03
2018-11-28T03:39:15.330Z,-0.12
2018-11-28T03:41:45.918Z,-0.15
2018-11-28T03:44:17.312Z,-0.20
2018-11-28T03:46:47.672Z,-0.30
2018-11-28T03:49:17.984Z,-0.32
2018-11-28T03:51:48.314Z,-0.27
2018-11-28T03:54:18.611Z,-0.20
2018-11-28T03:56:49.074Z,-0.17
2018-11-28T03:59:19.393Z,-0.29
2018-11-28T04:01:49.801Z,-0.17
2018-11-28T04:04:20.259Z,-0.37
2018-11-28T04:06:50.663Z,-0.48
2018-11-28T04:09:20.974Z,-0.44
2018-11-28T04:11:51.371Z,-0.44
2018-11-28T04:14:21.686Z,-0.43
2018-11-28T04:16:51.984Z,-0.48
2018-11-28T04:19:22.412Z,-0.50
2018-11-28T04:21:52.808Z,-0.58
2018-11-28T04:24:23.214Z,-0.54
2018-11-28T04:26:53.623Z,-0.46
2018-11-28T04:29:23.935Z,-0.51
2018-11-28T04:31:54.749Z,-0.48
2018-11-28T04:34:25.083Z,-0.53
2018-11-28T04:36:55.526Z,-0.46
2018-11-28T04:39:25.898Z,-0.43
2018-11-28T04:41:56.194Z,-0.47
2018-11-28T04:44:26.642Z,-0.58
2018-11-28T04:46:57.038Z,-0.51
2018-11-28T04:49:27.514Z,-0.51
2018-11-28T04:51:57.950Z,-0.55
2018-11-28T04:54:28.439Z,-0.67
2018-11-28T04:56:58.752Z,-0.79
2018-11-28T04:59:29.068Z,-0.72
2018-11-28T05:01:59.463Z,-0.82
2018-11-28T05:04:29.813Z,-0.75
2018-11-28T05:07:28.658Z,-0.80
2018-11-28T05:09:59.572Z,-0.72
2018-11-28T05:12:30.127Z,-0.80
2018-11-28T05:15:00.617Z,-0.78
2018-11-28T05:17:31.050Z,-0.67
2018-11-28T05:20:01.468Z,-0.80
2018-11-28T05:22:31.948Z,-0.84
2018-11-28T05:25:02.356Z,-0.80
2018-11-28T05:27:32.866Z,-0.79
2018-11-28T05:30:03.417Z,-0.67
2018-11-28T05:32:33.806Z,-0.69
2018-11-28T05:35:04.353Z,-0.77
2018-11-28T05:37:34.684Z,-0.68
2018-11-28T05:40:06.874Z,-0.69
2018-11-28T05:42:37.300Z,-0.73
2018-11-28T05:45:09.690Z,-0.75
2018-11-28T05:47:40.092Z,-0.80
2018-11-28T05:50:11.802Z,-0.80
2018-11-28T05:52:42.195Z,-0.82
2018-11-28T05:55:16.192Z,-0.86
2018-11-28T05:57:46.821Z,-0.86
2018-11-28T06:00:40.591Z,-0.84
2018-11-28T06:03:11.925Z,-0.84
2018-11-28T06:05:43.365Z,-0.75
2018-11-28T06:08:13.785Z,-0.87
2018-11-28T06:10:44.136Z,-0.88
2018-11-28T06:13:14.534Z,-0.80
2018-11-28T06:15:44.873Z,-0.74
2018-11-28T06:18:15.172Z,-0.67
2018-11-28T06:20:45.612Z,-0.52
2018-11-28T06:23:16.118Z,-0.48
2018-11-28T06:25:46.583Z,-0.55
2018-11-28T06:28:16.895Z,-0.57
2018-11-28T06:30:47.242Z,-0.34
2018-11-28T06:33:17.637Z,-0.30
2018-11-28T06:35:48.097Z,-0.26
2018-11-28T06:38:18.517Z,-0.23
2018-11-28T06:40:49.039Z,-0.36
2018-11-28T06:43:19.449Z,-0.34
2018-11-28T06:45:49.954Z,-0.39
2018-11-28T06:48:20.350Z,-0.43
2018-11-28T06:50:50.745Z,-0.43
2018-11-28T06:53:21.160Z,-0.34
2018-11-28T06:55:52.670Z,-0.36
2018-11-28T06:58:23.069Z,-0.21
2018-11-28T07:00:53.585Z,-0.15
2018-11-28T07:03:23.983Z,0.03
2018-11-28T07:05:54.342Z,0.04
2018-11-28T07:08:24.746Z,0.18
2018-11-28T07:10:55.193Z,0.09
2018-11-28T07:13:25.580Z,0.12
2018-11-28T07:15:55.958Z,0.16
2018-11-28T07:19:01.536Z,0.15
2018-11-28T07:21:32.067Z,0.16
2018-11-28T07:24:02.615Z,0.26
2018-11-28T07:26:32.973Z,0.26
2018-11-28T07:29:03.494Z,0.17
2018-11-28T07:31:33.889Z,0.12
2018-11-28T07:34:04.343Z,0.23
2018-11-28T07:36:34.755Z,0.20
2018-11-28T07:39:06.098Z,0.18
2018-11-28T07:41:36.538Z,0.22
2018-11-28T07:44:07.059Z,0.37
2018-11-28T07:46:37.447Z,0.32
2018-11-28T07:49:08.016Z,0.29
2018-11-28T07:51:38.364Z,0.36
2018-11-28T07:54:08.768Z,0.34
2018-11-28T07:56:39.122Z,0.53
2018-11-28T07:59:15.024Z,0.50
2018-11-28T08:01:45.899Z,0.46
2018-11-28T08:04:16.346Z,0.62
2018-11-28T08:06:46.742Z,0.62
2018-11-28T08:09:17.060Z,0.64
2018-11-28T08:11:47.364Z,0.53
2018-11-28T08:14:17.751Z,0.65
2018-11-28T08:16:48.193Z,0.67
2018-11-28T08:19:23.897Z,0.64
2018-11-28T08:21:49.820Z,0.59
2018-11-28T08:24:20.096Z,0.68
2018-11-28T08:26:51.442Z,0.79
2018-11-28T08:29:21.812Z,0.65
2018-11-28T08:31:52.282Z,0.76
2018-11-28T08:34:23.597Z,0.63
2018-11-28T08:36:53.948Z,0.73
2018-11-28T08:39:24.246Z,0.72
2018-11-28T08:41:54.633Z,0.65
2018-11-28T08:44:24.957Z,0.72
2018-11-28T08:46:55.343Z,0.84
2018-11-28T08:49:25.705Z,0.80
2018-11-28T08:51:56.103Z,0.96
2018-11-28T08:54:26.501Z,0.90
2018-11-28T08:56:56.837Z,0.95
2018-11-28T08:59:27.257Z,1.04
2018-11-28T09:01:57.575Z,1.01
2018-11-28T09:04:27.957Z,0.95
2018-11-28T09:06:58.415Z,1.03
2018-11-28T09:09:28.712Z,0.95
2018-11-28T09:11:59.178Z,1.02
2018-11-28T09:14:29.475Z,0.99
2018-11-28T09:16:59.881Z,1.00
2018-11-28T09:19:30.205Z,1.16
2018-11-28T09:22:00.623Z,1.11
2018-11-28T09:24:31.119Z,1.12
2018-11-28T09:27:01.464Z,1.11
2018-11-28T09:29:31.873Z,1.01
2018-11-28T09:32:02.233Z,1.16
2018-11-28T09:34:32.542Z,1.14
2018-11-28T09:37:02.966Z,1.24
2018-11-28T09:39:33.484Z,1.30
2018-11-28T09:42:03.966Z,1.21
2018-11-28T09:44:34.304Z,1.27
2018-11-28T09:47:04.674Z,1.37
2018-11-28T09:49:35.098Z,1.26
2018-11-28T09:52:05.794Z,1.33
2018-11-28T09:54:36.189Z,1.47
2018-11-28T09:57:07.007Z,1.60
2018-11-28T09:59:37.513Z,1.58
2018-11-28T10:02:08.003Z,1.57
2018-11-28T10:04:38.355Z,1.58
2018-11-28T10:07:08.930Z,1.68
2018-11-28T10:09:39.459Z,1.68
2018-11-28T10:12:09.780Z,1.72
2018-11-28T10:14:40.122Z,1.75
2018-11-28T10:17:10.400Z,1.76
2018-11-28T10:19:40.790Z,1.81
2018-11-28T10:22:11.181Z,1.71
2018-11-28T10:24:41.565Z,1.79
2018-11-28T10:27:12.085Z,1.98
2018-11-28T10:29:42.509Z,1.93
2018-11-28T10:32:12.983Z,1.89
2018-11-28T10:34:43.397Z,1.89
2018-11-28T10:37:13.846Z,1.95
2018-11-28T10:39:44.520Z,1.94
2018-11-28T10:42:15.085Z,2.04
2018-11-28T10:44:45.500Z,1.93
2018-11-28T10:47:15.903Z,2.07
2018-11-28T10:49:46.303Z,2.19
2018-11-28T10:52:16.781Z,2.02
2018-11-28T10:54:47.075Z,2.11
2018-11-28T10:57:17.563Z,2.08
2018-11-28T10:59:48.012Z,2.04
2018-11-28T11:02:35.520Z,2.10
2018-11-28T11:05:24.071Z,2.19
2018-11-28T11:08:11.680Z,2.06
2018-11-28T11:10:59.216Z,2.05
2018-11-28T11:14:01.301Z,2.09
2018-11-28T11:16:32.368Z,2.03
2018-11-28T11:19:03.025Z,2.20
2018-11-28T11:21:33.899Z,2.24
2018-11-28T11:24:05.037Z,2.17
2018-11-28T11:26:35.747Z,2.16
2018-11-28T11:29:06.625Z,2.17
2018-11-28T11:31:37.248Z,2.16
2018-11-28T11:34:08.118Z,2.23
2018-11-28T11:36:38.636Z,2.21
2018-11-28T11:39:09.560Z,2.32
2018-11-28T11:41:40.121Z,2.23
2018-11-28T11:44:10.733Z,2.01
2018-11-28T11:46:41.374Z,2.20
2018-11-28T11:49:12.033Z,2.35
2018-11-28T11:51:42.532Z,2.39
2018-11-28T11:54:13.106Z,2.40
2018-11-28T11:56:43.686Z,2.39
2018-11-28T11:59:14.106Z,2.31
2018-11-28T12:01:44.622Z,2.27
2018-11-28T12:04:15.030Z,2.35
2018-11-28T12:06:45.451Z,2.28
2018-11-28T12:09:15.892Z,2.30
2018-11-28T12:11:46.417Z,2.18
2018-11-28T12:14:16.924Z,2.30
2018-11-28T12:16:47.330Z,2.29
2018-11-28T12:19:17.756Z,2.27
2018-11-28T12:21:48.276Z,2.18
2018-11-28T12:24:18.789Z,2.25
2018-11-28T12:26:49.199Z,2.22
2018-11-28T12:29:19.715Z,2.19
2018-11-28T12:31:50.206Z,2.16
2018-11-28T12:34:20.751Z,2.17
2018-11-28T12:36:51.302Z,2.18
2018-11-28T12:41:52.364Z,2.23
2018-11-28T12:44:22.872Z,2.37
2018-11-28T12:46:53.296Z,2.30
2018-11-28T12:49:23.729Z,2.15
2018-11-28T12:51:54.249Z,2.28
2018-11-28T12:54:24.823Z,2.21
2018-11-28T12:56:55.397Z,2.06
2018-11-28T12:59:25.841Z,2.05
2018-11-28T13:01:56.440Z,2.18
2018-11-28T13:04:26.906Z,2.14
2018-11-28T13:06:57.400Z,2.24
2018-11-28T13:09:28.159Z,2.05
2018-11-28T13:12:00.082Z,2.16
2018-11-28T13:14:29.958Z,1.99
2018-11-28T13:17:00.385Z,2.20
2018-11-28T13:19:30.875Z,1.96
2018-11-28T13:22:01.261Z,2.00
2018-11-28T13:24:31.878Z,1.98
2018-11-28T13:27:02.179Z,2.08
2018-11-28T13:29:32.568Z,2.14
2018-11-28T13:32:03.063Z,2.06
2018-11-28T13:34:33.589Z,2.09
2018-11-28T13:37:04.200Z,1.97
2018-11-28T13:39:34.621Z,2.02
2018-11-28T13:42:05.020Z,1.98
2018-11-28T13:44:35.419Z,1.97
2018-11-28T13:47:06.177Z,1.87
2018-11-28T13:49:36.676Z,1.75
2018-11-28T13:52:07.158Z,1.80
2018-11-28T13:55:36.621Z,1.90
2018-11-28T13:57:10.098Z,1.98
2018-11-28T13:59:40.060Z,1.96
2018-11-28T14:02:10.643Z,1.89
2018-11-28T14:04:40.967Z,1.93
2018-11-28T14:07:11.265Z,1.81
2018-11-28T14:09:41.632Z,1.72
2018-11-28T14:12:11.925Z,1.73
2018-11-28T14:14:42.405Z,1.70
2018-11-28T14:17:12.907Z,1.77
2018-11-28T14:19:43.243Z,1.75
2018-11-28T14:22:13.726Z,1.79
2018-11-28T14:24:44.104Z,1.77
2018-11-28T14:27:14.530Z,1.72
2018-11-28T14:29:45.002Z,1.54
2018-11-28T14:32:15.511Z,1.64
2018-11-28T14:34:46.006Z,1.78
2018-11-28T14:37:16.500Z,1.67
2018-11-28T14:39:46.801Z,1.61
2018-11-28T14:42:17.285Z,1.56
2018-11-28T14:44:47.643Z,1.69
2018-11-28T14:47:18.069Z,1.68
2018-11-28T14:49:48.451Z,1.64
2018-11-28T14:52:18.754Z,1.57
2018-11-28T14:54:49.149Z,1.55
2018-11-28T14:57:19.549Z,1.51
2018-11-28T14:59:49.821Z,1.46
2018-11-28T15:02:20.458Z,1.43
2018-11-28T15:04:50.828Z,1.40
2018-11-28T15:07:21.695Z,1.45
2018-11-28T15:10:02.149Z,1.38
2018-11-28T15:12:32.756Z,1.27
2018-11-28T15:15:03.174Z,1.37
2018-11-28T15:17:33.824Z,1.44
2018-11-28T15:20:04.347Z,1.45
2018-11-28T15:22:34.897Z,1.48
2018-11-28T15:25:07.490Z,1.37
2018-11-28T15:27:38.002Z,1.31
2018-11-28T15:30:09.716Z,1.26
2018-11-28T15:32:40.087Z,1.19
2018-11-28T15:35:10.505Z,1.31
2018-11-28T15:37:40.819Z,1.25
2018-11-28T15:40:11.414Z,1.22
2018-11-28T15:42:41.896Z,1.22
2018-11-28T15:45:12.400Z,1.27
2018-11-28T15:47:42.942Z,1.24
2018-11-28T15:50:13.444Z,1.34
2018-11-28T15:52:43.880Z,1.37
2018-11-28T15:55:14.816Z,1.31
2018-11-28T15:57:45.231Z,1.15
2018-11-28T16:00:23.204Z,1.22
2018-11-28T16:02:54.114Z,1.22
2018-11-28T16:05:24.591Z,1.25
2018-11-28T16:07:54.930Z,1.11
2018-11-28T16:10:55.863Z,1.13
2018-11-28T16:13:26.427Z,1.12
2018-11-28T16:15:58.051Z,1.13
2018-11-28T16:18:28.370Z,1.12
2018-11-28T16:20:58.798Z,1.22
2018-11-28T16:23:29.368Z,1.28
2018-11-28T16:25:59.830Z,1.18
2018-11-28T16:28:30.264Z,1.22
2018-11-28T16:31:00.647Z,1.27
2018-11-28T16:33:30.947Z,1.27
2018-11-28T16:36:01.425Z,1.15
2018-11-28T16:38:31.822Z,1.16
2018-11-28T16:41:02.126Z,1.20
2018-11-28T16:43:32.659Z,1.08
2018-11-28T16:46:03.123Z,1.02
2018-11-28T16:48:33.609Z,1.11
2018-11-28T16:51:04.015Z,1.06
2018-11-28T16:53:34.422Z,1.09
2018-11-28T16:56:04.935Z,1.12
2018-11-28T16:58:35.326Z,1.11
2018-11-28T17:01:06.051Z,1.14
2018-11-28T17:03:36.363Z,1.06
2018-11-28T17:06:06.921Z,1.00
2018-11-28T17:08:37.306Z,1.09
2018-11-28T17:11:07.972Z,0.99
2018-11-28T17:13:38.285Z,1.03
2018-11-28T17:16:08.766Z,1.15
2018-11-28T17:18:39.110Z,1.21
2018-11-28T17:21:09.619Z,1.11
2018-11-28T17:23:39.990Z,1.11
2018-11-28T17:26:10.442Z,0.99
2018-11-28T17:28:40.829Z,1.00
2018-11-28T17:31:11.291Z,1.17
2018-11-28T17:33:41.563Z,1.04
2018-11-28T17:36:12.722Z,1.09
2018-11-28T17:38:43.151Z,1.08
2018-11-28T17:41:13.551Z,1.17
2018-11-28T17:43:43.963Z,1.08
2018-11-28T17:46:14.443Z,1.11
2018-11-28T17:48:44.848Z,1.04
2018-11-28T17:51:15.338Z,1.01
2018-11-28T17:53:45.728Z,1.06
2018-11-28T17:56:16.252Z,1.18
2018-11-28T17:58:46.622Z,1.16
2018-11-28T18:01:16.952Z,0.98
2018-11-28T18:03:47.322Z,1.01
2018-11-28T18:06:17.643Z,1.01
2018-11-28T18:08:47.951Z,0.96
2018-11-28T18:11:18.399Z,0.93
2018-11-28T18:13:48.793Z,0.93
2018-11-28T18:16:19.185Z,0.93
2018-11-28T18:18:49.643Z,0.97
2018-11-28T18:21:20.059Z,1.03
2018-11-28T18:23:50.435Z,0.89
2018-11-28T18:26:20.822Z,0.96
2018-11-28T18:28:51.297Z,0.91
2018-11-28T18:31:21.995Z,0.95
2018-11-28T18:33:52.493Z,0.97
2018-11-28T18:36:22.962Z,0.99
2018-11-28T18:38:53.390Z,1.10
2018-11-28T18:41:23.784Z,0.93
2018-11-28T18:43:54.289Z,0.84
2018-11-28T18:46:24.773Z,1.06
2018-11-28T18:48:55.186Z,1.09
2018-11-28T18:51:25.619Z,0.97
2018-11-28T18:53:55.989Z,0.95
2018-11-28T18:56:26.428Z,0.87
2018-11-28T18:58:56.737Z,0.84
2018-11-28T19:01:27.080Z,0.91
2018-11-28T19:03:57.358Z,0.88
2018-11-28T19:06:27.753Z,0.82
2018-11-28T19:08:58.154Z,0.74
2018-11-28T19:11:28.666Z,0.79
2018-11-28T19:13:59.237Z,0.77
2018-11-28T19:16:29.561Z,0.75
2018-11-28T19:18:59.963Z,0.85
2018-11-28T19:21:30.365Z,0.86
2018-11-28T19:24:00.670Z,0.76
2018-11-28T19:26:30.999Z,0.94
2018-11-28T19:29:01.292Z,0.94
2018-11-28T19:31:31.591Z,0.86
2018-11-28T19:34:02.066Z,0.82
2018-11-28T19:36:32.427Z,0.75
2018-11-28T19:39:03.348Z,0.74
2018-11-28T19:41:33.674Z,0.72
2018-11-28T19:44:04.061Z,0.91
2018-11-28T19:46:34.521Z,0.78
2018-11-28T19:49:04.933Z,0.67
2018-11-28T19:51:35.363Z,0.76
2018-11-28T19:54:05.957Z,0.67
2018-11-28T19:56:36.415Z,0.69
2018-11-28T19:59:07.138Z,0.60
2018-11-28T20:01:37.517Z,0.60
2018-11-28T20:04:08.051Z,0.64
2018-11-28T20:06:38.518Z,0.54
2018-11-28T20:09:22.064Z,0.64
2018-11-28T20:11:52.478Z,0.54
2018-11-28T20:14:22.984Z,0.60
2018-11-28T20:16:53.377Z,0.59
2018-11-28T20:19:23.677Z,0.58
2018-11-28T20:21:53.987Z,0.56
2018-11-28T20:24:24.300Z,0.60
2018-11-28T20:26:54.659Z,0.58
2018-11-28T20:29:25.095Z,0.70
2018-11-28T20:31:55.625Z,0.62
2018-11-28T20:34:26.049Z,0.57
2018-11-28T20:36:56.448Z,0.68
2018-11-28T20:39:26.779Z,0.61
2018-11-28T20:41:57.087Z,0.67
2018-11-28T20:44:27.510Z,0.72
2018-11-28T20:46:57.914Z,0.65
2018-11-28T20:49:28.258Z,0.66
2018-11-28T20:51:58.671Z,0.65
2018-11-28T20:54:29.033Z,0.59
2018-11-28T20:56:59.503Z,0.60
2018-11-28T20:59:29.891Z,0.62
2018-11-28T21:02:00.284Z,0.60
2018-11-28T21:04:30.661Z,0.56
2018-11-28T21:07:01.144Z,0.57
2018-11-28T21:09:32.413Z,0.72
2018-11-28T21:12:02.912Z,0.79
2018-11-28T21:14:33.304Z,0.72
2018-11-28T21:17:03.618Z,0.69
2018-11-28T21:19:34.126Z,0.64
2018-11-28T21:22:04.510Z,0.61
2018-11-28T21:24:34.835Z,0.58
2018-11-28T21:27:05.357Z,0.51
2018-11-28T21:29:35.736Z,0.61
2018-11-28T21:32:06.212Z,0.64
2018-11-28T21:34:36.596Z,0.53
2018-11-28T21:37:07.117Z,0.75
2018-11-28T21:39:37.565Z,0.67
2018-11-28T21:42:08.065Z,0.81
2018-11-28T21:44:38.355Z,0.86
2018-11-28T21:47:08.758Z,0.73
2018-11-28T21:49:39.045Z,0.75
2018-11-28T21:52:09.353Z,0.93
2018-11-28T21:54:39.740Z,1.04
2018-11-28T21:57:10.355Z,1.01
2018-11-28T21:59:40.768Z,0.79
2018-11-28T22:02:11.166Z,0.72
2018-11-28T22:04:41.542Z,0.77
2018-11-28T22:07:11.852Z,0.77
2018-11-28T22:09:42.243Z,0.66
2018-11-28T22:12:12.649Z,0.63
2018-11-28T22:14:42.977Z,0.65
2018-11-28T22:17:13.539Z,0.75
2018-11-28T22:19:43.895Z,0.66
2018-11-28T22:22:14.196Z,0.60
2018-11-28T22:24:47.663Z,0.67
2018-11-28T22:27:17.967Z,0.58
2018-11-28T22:29:48.478Z,0.57
2018-11-28T22:32:18.887Z,0.60
2018-11-28T22:34:49.189Z,0.68
2018-11-28T22:37:19.529Z,0.64
2018-11-28T22:39:49.811Z,0.78
2018-11-28T22:42:20.210Z,0.77
2018-11-28T22:44:50.705Z,0.68
2018-11-28T22:47:21.153Z,0.64
2018-11-28T22:49:51.489Z,0.83
2018-11-28T22:52:21.885Z,0.64
2018-11-28T22:54:52.309Z,0.61
2018-11-28T22:57:22.601Z,0.58
2018-11-28T22:59:52.924Z,0.69
2018-11-28T23:02:50.114Z,0.54
2018-11-28T23:05:20.856Z,0.62
2018-11-28T23:07:51.316Z,0.76
2018-11-28T23:10:21.842Z,0.73
2018-11-28T23:12:52.385Z,0.60
2018-11-28T23:15:22.875Z,0.56
2018-11-28T23:17:55.283Z,0.56
2018-11-28T23:20:24.638Z,0.54
2018-11-28T23:22:55.023Z,0.57
2018-11-28T23:25:25.521Z,0.60
2018-11-28T23:27:56.383Z,0.56
2018-11-28T23:30:26.683Z,0.67
2018-11-28T23:32:57.255Z,0.55
2018-11-28T23:35:27.646Z,0.56
2018-11-28T23:37:57.949Z,0.58
2018-11-28T23:40:28.606Z,0.66
2018-11-28T23:42:59.046Z,0.62
2018-11-28T23:45:30.302Z,0.68
2018-11-28T23:48:00.738Z,0.64
2018-11-28T23:50:31.201Z,0.50
2018-11-28T23:53:01.625Z,0.37
2018-11-28T23:55:32.683Z,0.64
2018-11-28T23:58:03.188Z,0.60
